sensor_id;sensor_type;location;lat;lon;timestamp;temperature;humidity
592;DHT22;283;53.608;10.046;2022-11-15T00:00:36;6.10;99.90
592;DHT22;283;53.608;10.046;2022-11-15T00:03:03;6.00;99.90
592;DHT22;283;53.608;10.046;2022-11-15T00:05:34;6.00;99.90
592;DHT22;283;53.608;10.046;2022-11-15T00:08:01;6.00;99.90
592;DHT22;283;53.608;10.046;2022-11-15T00:10:29;5.90;99.90
592;DHT22;283;53.608;10.046;2022-11-15T00:12:56;6.00;99.90
592;DHT22;283;53.608;10.046;2022-11-15T00:15:25;5.90;99.90
592;DHT22;283;53.608;10.046;2022-11-15T00:17:53;5.90;99.90
592;DHT22;283;53.608;10.046;2022-11-15T00:20:21;6.10;99.90
592;DHT22;283;53.608;10.046;2022-11-15T00:22:48;6.00;99.90
592;DHT22;283;53.608;10.046;2022-11-15T00:25:16;5.90;99.90
592;DHT22;283;53.608;10.046;2022-11-15T00:27:43;5.90;99.90
592;DHT22;283;53.608;10.046;2022-11-15T00:30:11;5.80;99.90
592;DHT22;283;53.608;10.046;2022-11-15T00:32:41;5.90;99.90
592;DHT22;283;53.608;10.046;2022-11-15T00:35:08;5.80;99.90
592;DHT22;283;53.608;10.046;2022-11-15T00:37:36;6.00;99.90
592;DHT22;283;53.608;10.046;2022-11-15T00:40:05;6.10;99.90
592;DHT22;283;53.608;10.046;2022-11-15T00:42:33;6.20;99.90
592;DHT22;283;53.608;10.046;2022-11-15T00:45:00;6.30;99.90
592;DHT22;283;53.608;10.046;2022-11-15T00:47:28;6.30;99.90
592;DHT22;283;53.608;10.046;2022-11-15T00:49:57;6.20;99.90
592;DHT22;283;53.608;10.046;2022-11-15T00:52:25;6.20;99.90
592;DHT22;283;53.608;10.046;2022-11-15T00:54:52;6.10;99.90
592;DHT22;283;53.608;10.046;2022-11-15T00:57:20;6.10;99.90
592;DHT22;283;53.608;10.046;2022-11-15T00:59:47;6.00;99.90
592;DHT22;283;53.608;10.046;2022-11-15T01:02:15;6.00;99.90
592;DHT22;283;53.608;10.046;2022-11-15T01:04:42;5.90;99.90
592;DHT22;283;53.608;10.046;2022-11-15T01:07:11;5.80;99.90
592;DHT22;283;53.608;10.046;2022-11-15T01:09:39;5.90;99.90
592;DHT22;283;53.608;10.046;2022-11-15T01:12:07;5.90;99.90
592;DHT22;283;53.608;10.046;2022-11-15T01:14:34;5.90;99.90
592;DHT22;283;53.608;10.046;2022-11-15T01:17:02;6.00;99.90
592;DHT22;283;53.608;10.046;2022-11-15T01:19:29;6.00;99.90
592;DHT22;283;53.608;10.046;2022-11-15T01:21:57;6.10;99.90
592;DHT22;283;53.608;10.046;2022-11-15T01:24:26;6.10;99.90
592;DHT22;283;53.608;10.046;2022-11-15T01:26:54;6.00;99.90
592;DHT22;283;53.608;10.046;2022-11-15T01:29:21;6.00;99.90
592;DHT22;283;53.608;10.046;2022-11-15T01:31:49;6.00;99.90
592;DHT22;283;53.608;10.046;2022-11-15T01:34:17;5.90;99.90
592;DHT22;283;53.608;10.046;2022-11-15T01:36:44;5.90;99.90
592;DHT22;283;53.608;10.046;2022-11-15T01:39:12;5.70;99.90
592;DHT22;283;53.608;10.046;2022-11-15T01:41:41;5.70;99.90
592;DHT22;283;53.608;10.046;2022-11-15T01:46:55;5.70;99.90
592;DHT22;283;53.608;10.046;2022-11-15T01:49:22;5.70;99.90
592;DHT22;283;53.608;10.046;2022-11-15T01:51:50;5.70;99.90
592;DHT22;283;53.608;10.046;2022-11-15T01:54:19;5.70;99.90
592;DHT22;283;53.608;10.046;2022-11-15T01:56:50;5.60;99.90
592;DHT22;283;53.608;10.046;2022-11-15T01:59:18;5.60;99.90
592;DHT22;283;53.608;10.046;2022-11-15T02:01:46;5.60;99.90
592;DHT22;283;53.608;10.046;2022-11-15T02:04:15;5.60;99.90
592;DHT22;283;53.608;10.046;2022-11-15T02:06:44;5.50;99.90
592;DHT22;283;53.608;10.046;2022-11-15T02:09:13;5.50;99.90
592;DHT22;283;53.608;10.046;2022-11-15T02:11:40;5.50;99.90
592;DHT22;283;53.608;10.046;2022-11-15T02:25:56;5.30;99.90
592;DHT22;283;53.608;10.046;2022-11-15T02:28:31;5.30;99.90
592;DHT22;283;53.608;10.046;2022-11-15T02:31:04;5.30;99.90
592;DHT22;283;53.608;10.046;2022-11-15T02:33:36;5.30;99.90
592;DHT22;283;53.608;10.046;2022-11-15T02:36:08;5.20;99.90
592;DHT22;283;53.608;10.046;2022-11-15T02:38:39;5.20;99.90
592;DHT22;283;53.608;10.046;2022-11-15T02:41:09;5.40;99.90
592;DHT22;283;53.608;10.046;2022-11-15T02:43:38;5.20;99.90
592;DHT22;283;53.608;10.046;2022-11-15T02:46:36;5.10;99.90
592;DHT22;283;53.608;10.046;2022-11-15T02:49:22;5.10;99.90
592;DHT22;283;53.608;10.046;2022-11-15T02:51:51;5.10;99.80
592;DHT22;283;53.608;10.046;2022-11-15T02:54:24;5.10;99.90
592;DHT22;283;53.608;10.046;2022-11-15T02:56:58;5.30;99.90
592;DHT22;283;53.608;10.046;2022-11-15T03:02:20;5.10;99.90
592;DHT22;283;53.608;10.046;2022-11-15T03:04:53;5.00;99.90
592;DHT22;283;53.608;10.046;2022-11-15T03:07:24;5.30;99.90
592;DHT22;283;53.608;10.046;2022-11-15T03:09:56;5.00;99.90
592;DHT22;283;53.608;10.046;2022-11-15T03:12:30;5.00;99.90
592;DHT22;283;53.608;10.046;2022-11-15T03:15:04;5.10;99.90
592;DHT22;283;53.608;10.046;2022-11-15T03:17:35;5.10;99.90
592;DHT22;283;53.608;10.046;2022-11-15T03:20:05;5.10;99.90
592;DHT22;283;53.608;10.046;2022-11-15T03:22:35;5.10;99.90
592;DHT22;283;53.608;10.046;2022-11-15T03:25:07;5.10;99.90
592;DHT22;283;53.608;10.046;2022-11-15T03:27:38;5.10;99.90
592;DHT22;283;53.608;10.046;2022-11-15T03:30:07;5.30;99.90
592;DHT22;283;53.608;10.046;2022-11-15T03:32:37;5.20;99.90
592;DHT22;283;53.608;10.046;2022-11-15T03:35:06;5.40;99.90
592;DHT22;283;53.608;10.046;2022-11-15T03:37:36;5.20;99.90
592;DHT22;283;53.608;10.046;2022-11-15T03:40:06;5.10;99.90
592;DHT22;283;53.608;10.046;2022-11-15T03:42:35;5.20;99.90
592;DHT22;283;53.608;10.046;2022-11-15T03:45:07;5.40;99.90
592;DHT22;283;53.608;10.046;2022-11-15T03:47:38;5.20;99.90
592;DHT22;283;53.608;10.046;2022-11-15T03:50:08;5.20;99.90
592;DHT22;283;53.608;10.046;2022-11-15T03:52:39;5.20;99.90
592;DHT22;283;53.608;10.046;2022-11-15T03:55:10;5.20;99.90
592;DHT22;283;53.608;10.046;2022-11-15T03:57:38;5.50;99.90
592;DHT22;283;53.608;10.046;2022-11-15T04:00:06;5.20;99.90
592;DHT22;283;53.608;10.046;2022-11-15T04:02:34;5.40;99.90
592;DHT22;283;53.608;10.046;2022-11-15T04:05:04;5.40;99.90
592;DHT22;283;53.608;10.046;2022-11-15T04:07:32;5.40;99.90
592;DHT22;283;53.608;10.046;2022-11-15T04:16:54;5.40;99.90
592;DHT22;283;53.608;10.046;2022-11-15T04:19:34;5.30;99.90
592;DHT22;283;53.608;10.046;2022-11-15T04:22:35;5.30;99.90
592;DHT22;283;53.608;10.046;2022-11-15T04:25:32;5.40;99.90
592;DHT22;283;53.608;10.046;2022-11-15T04:28:01;5.10;99.90
592;DHT22;283;53.608;10.046;2022-11-15T04:30:29;5.20;99.90
592;DHT22;283;53.608;10.046;2022-11-15T04:32:57;5.50;99.90
592;DHT22;283;53.608;10.046;2022-11-15T04:35:25;5.30;99.90
592;DHT22;283;53.608;10.046;2022-11-15T04:37:55;5.40;99.90
592;DHT22;283;53.608;10.046;2022-11-15T04:40:24;5.30;99.90
592;DHT22;283;53.608;10.046;2022-11-15T04:42:53;5.30;99.90
592;DHT22;283;53.608;10.046;2022-11-15T04:45:29;5.40;99.90
592;DHT22;283;53.608;10.046;2022-11-15T04:48:07;5.30;99.90
592;DHT22;283;53.608;10.046;2022-11-15T04:50:38;5.70;99.90
592;DHT22;283;53.608;10.046;2022-11-15T04:53:08;5.30;99.90
592;DHT22;283;53.608;10.046;2022-11-15T04:55:36;5.30;99.90
592;DHT22;283;53.608;10.046;2022-11-15T04:58:06;5.60;99.90
592;DHT22;283;53.608;10.046;2022-11-15T05:00:36;5.50;99.90
592;DHT22;283;53.608;10.046;2022-11-15T05:03:06;5.60;99.90
592;DHT22;283;53.608;10.046;2022-11-15T05:06:06;5.90;99.90
592;DHT22;283;53.608;10.046;2022-11-15T05:08:43;5.70;99.90
592;DHT22;283;53.608;10.046;2022-11-15T05:11:18;5.70;99.90
592;DHT22;283;53.608;10.046;2022-11-15T05:13:47;5.80;99.90
592;DHT22;283;53.608;10.046;2022-11-15T05:16:15;5.90;99.90
592;DHT22;283;53.608;10.046;2022-11-15T05:18:43;6.10;99.90
592;DHT22;283;53.608;10.046;2022-11-15T05:21:12;6.00;99.90
592;DHT22;283;53.608;10.046;2022-11-15T05:23:41;6.00;99.90
592;DHT22;283;53.608;10.046;2022-11-15T05:26:09;6.10;99.90
592;DHT22;283;53.608;10.046;2022-11-15T05:28:38;6.10;99.90
592;DHT22;283;53.608;10.046;2022-11-15T05:31:09;6.10;99.90
592;DHT22;283;53.608;10.046;2022-11-15T05:33:38;6.00;99.90
592;DHT22;283;53.608;10.046;2022-11-15T05:36:07;6.00;99.90
592;DHT22;283;53.608;10.046;2022-11-15T05:38:37;6.20;99.90
592;DHT22;283;53.608;10.046;2022-11-15T05:41:06;6.20;99.90
592;DHT22;283;53.608;10.046;2022-11-15T05:43:36;6.30;99.90
592;DHT22;283;53.608;10.046;2022-11-15T05:46:05;6.20;99.90
592;DHT22;283;53.608;10.046;2022-11-15T05:48:34;6.30;99.90
592;DHT22;283;53.608;10.046;2022-11-15T05:51:05;6.40;99.90
592;DHT22;283;53.608;10.046;2022-11-15T05:53:44;5.90;99.90
592;DHT22;283;53.608;10.046;2022-11-15T05:56:25;6.40;99.90
592;DHT22;283;53.608;10.046;2022-11-15T05:58:55;6.60;99.90
592;DHT22;283;53.608;10.046;2022-11-15T06:01:25;6.40;99.90
592;DHT22;283;53.608;10.046;2022-11-15T06:04:00;6.40;99.90
592;DHT22;283;53.608;10.046;2022-11-15T06:06:28;6.50;99.90
592;DHT22;283;53.608;10.046;2022-11-15T06:09:02;6.50;99.90
592;DHT22;283;53.608;10.046;2022-11-15T06:11:32;6.50;99.90
592;DHT22;283;53.608;10.046;2022-11-15T06:14:03;6.60;99.90
592;DHT22;283;53.608;10.046;2022-11-15T06:16:33;6.90;99.90
592;DHT22;283;53.608;10.046;2022-11-15T06:19:01;6.60;99.90
592;DHT22;283;53.608;10.046;2022-11-15T06:21:29;6.70;99.90
592;DHT22;283;53.608;10.046;2022-11-15T06:23:57;6.70;99.90
592;DHT22;283;53.608;10.046;2022-11-15T06:26:25;6.80;99.90
592;DHT22;283;53.608;10.046;2022-11-15T06:28:55;6.80;99.90
592;DHT22;283;53.608;10.046;2022-11-15T06:31:23;6.70;99.90
592;DHT22;283;53.608;10.046;2022-11-15T06:33:51;7.10;99.90
592;DHT22;283;53.608;10.046;2022-11-15T06:36:18;6.90;99.90
592;DHT22;283;53.608;10.046;2022-11-15T06:38:47;7.00;99.90
592;DHT22;283;53.608;10.046;2022-11-15T06:41:14;7.20;99.90
592;DHT22;283;53.608;10.046;2022-11-15T06:43:43;7.20;99.90
592;DHT22;283;53.608;10.046;2022-11-15T06:46:12;7.30;99.90
592;DHT22;283;53.608;10.046;2022-11-15T06:48:41;7.50;99.90
592;DHT22;283;53.608;10.046;2022-11-15T06:51:09;7.40;99.90
592;DHT22;283;53.608;10.046;2022-11-15T06:53:37;7.40;99.90
592;DHT22;283;53.608;10.046;2022-11-15T06:56:06;7.40;99.90
592;DHT22;283;53.608;10.046;2022-11-15T06:58:34;7.40;99.90
592;DHT22;283;53.608;10.046;2022-11-15T07:01:03;7.40;99.90
592;DHT22;283;53.608;10.046;2022-11-15T07:03:33;7.50;99.90
592;DHT22;283;53.608;10.046;2022-11-15T07:06:04;7.50;99.90
592;DHT22;283;53.608;10.046;2022-11-15T07:08:33;7.40;99.90
592;DHT22;283;53.608;10.046;2022-11-15T07:11:02;7.50;99.90
592;DHT22;283;53.608;10.046;2022-11-15T07:13:33;7.80;99.90
592;DHT22;283;53.608;10.046;2022-11-15T07:16:02;7.60;99.90
592;DHT22;283;53.608;10.046;2022-11-15T07:18:30;7.70;99.90
592;DHT22;283;53.608;10.046;2022-11-15T07:21:01;7.60;99.50
592;DHT22;283;53.608;10.046;2022-11-15T07:23:29;7.70;99.90
592;DHT22;283;53.608;10.046;2022-11-15T07:25:58;7.60;99.60
592;DHT22;283;53.608;10.046;2022-11-15T07:28:26;7.80;99.90
592;DHT22;283;53.608;10.046;2022-11-15T07:30:54;7.80;99.90
592;DHT22;283;53.608;10.046;2022-11-15T07:33:22;7.70;99.20
592;DHT22;283;53.608;10.046;2022-11-15T07:35:50;7.80;99.60
592;DHT22;283;53.608;10.046;2022-11-15T07:38:19;7.80;99.90
592;DHT22;283;53.608;10.046;2022-11-15T07:40:47;8.00;99.80
592;DHT22;283;53.608;10.046;2022-11-15T07:43:14;8.00;99.60
592;DHT22;283;53.608;10.046;2022-11-15T07:45:45;8.00;99.60
592;DHT22;283;53.608;10.046;2022-11-15T07:48:13;8.10;99.80
592;DHT22;283;53.608;10.046;2022-11-15T07:50:41;8.00;99.00
592;DHT22;283;53.608;10.046;2022-11-15T07:53:09;8.20;99.10
592;DHT22;283;53.608;10.046;2022-11-15T07:55:39;8.00;98.90
592;DHT22;283;53.608;10.046;2022-11-15T07:58:10;8.10;99.20
592;DHT22;283;53.608;10.046;2022-11-15T08:00:40;8.10;98.90
592;DHT22;283;53.608;10.046;2022-11-15T08:03:09;8.00;98.10
592;DHT22;283;53.608;10.046;2022-11-15T08:05:37;8.10;98.60
592;DHT22;283;53.608;10.046;2022-11-15T08:08:05;8.10;98.40
592;DHT22;283;53.608;10.046;2022-11-15T08:10:33;8.10;98.50
592;DHT22;283;53.608;10.046;2022-11-15T08:13:08;8.10;98.20
592;DHT22;283;53.608;10.046;2022-11-15T08:15:39;8.30;98.10
592;DHT22;283;53.608;10.046;2022-11-15T08:18:12;8.30;98.20
592;DHT22;283;53.608;10.046;2022-11-15T08:20:41;8.20;98.20
592;DHT22;283;53.608;10.046;2022-11-15T08:23:11;8.10;98.20
592;DHT22;283;53.608;10.046;2022-11-15T08:25:39;8.20;98.30
592;DHT22;283;53.608;10.046;2022-11-15T08:28:09;8.10;98.50
592;DHT22;283;53.608;10.046;2022-11-15T08:30:39;8.30;98.10
592;DHT22;283;53.608;10.046;2022-11-15T08:33:17;8.10;98.30
592;DHT22;283;53.608;10.046;2022-11-15T08:35:45;8.10;98.10
592;DHT22;283;53.608;10.046;2022-11-15T08:38:13;8.20;98.10
592;DHT22;283;53.608;10.046;2022-11-15T08:40:44;8.20;97.60
592;DHT22;283;53.608;10.046;2022-11-15T08:43:21;8.30;98.10
592;DHT22;283;53.608;10.046;2022-11-15T08:45:49;8.30;98.10
592;DHT22;283;53.608;10.046;2022-11-15T08:48:17;8.30;97.50
592;DHT22;283;53.608;10.046;2022-11-15T08:50:45;8.60;97.80
592;DHT22;283;53.608;10.046;2022-11-15T08:53:13;8.50;97.60
592;DHT22;283;53.608;10.046;2022-11-15T08:55:46;8.60;97.50
592;DHT22;283;53.608;10.046;2022-11-15T08:58:15;8.80;97.60
592;DHT22;283;53.608;10.046;2022-11-15T09:00:45;8.50;97.30
592;DHT22;283;53.608;10.046;2022-11-15T09:03:14;8.60;97.50
592;DHT22;283;53.608;10.046;2022-11-15T09:05:43;8.60;97.90
592;DHT22;283;53.608;10.046;2022-11-15T09:08:11;8.60;97.50
592;DHT22;283;53.608;10.046;2022-11-15T09:11:02;8.60;97.20
592;DHT22;283;53.608;10.046;2022-11-15T09:13:33;8.90;97.70
592;DHT22;283;53.608;10.046;2022-11-15T09:16:07;8.80;97.60
592;DHT22;283;53.608;10.046;2022-11-15T09:18:35;8.80;97.50
592;DHT22;283;53.608;10.046;2022-11-15T09:21:10;8.90;97.30
592;DHT22;283;53.608;10.046;2022-11-15T09:23:39;8.80;97.30
592;DHT22;283;53.608;10.046;2022-11-15T09:26:07;9.00;97.40
592;DHT22;283;53.608;10.046;2022-11-15T09:28:35;9.00;96.80
592;DHT22;283;53.608;10.046;2022-11-15T09:31:05;9.10;97.10
592;DHT22;283;53.608;10.046;2022-11-15T09:33:36;9.00;97.00
592;DHT22;283;53.608;10.046;2022-11-15T09:36:05;9.20;96.80
592;DHT22;283;53.608;10.046;2022-11-15T09:38:34;9.20;96.70
592;DHT22;283;53.608;10.046;2022-11-15T09:43:52;9.20;96.80
592;DHT22;283;53.608;10.046;2022-11-15T09:46:24;9.30;96.70
592;DHT22;283;53.608;10.046;2022-11-15T09:48:57;9.40;96.40
592;DHT22;283;53.608;10.046;2022-11-15T09:51:27;9.40;96.10
592;DHT22;283;53.608;10.046;2022-11-15T09:54:26;9.50;96.30
592;DHT22;283;53.608;10.046;2022-11-15T09:57:15;9.50;96.40
592;DHT22;283;53.608;10.046;2022-11-15T10:00:07;9.50;96.00
592;DHT22;283;53.608;10.046;2022-11-15T10:03:02;9.60;96.20
592;DHT22;283;53.608;10.046;2022-11-15T10:05:34;9.40;96.00
592;DHT22;283;53.608;10.046;2022-11-15T10:08:11;10.00;95.60
592;DHT22;283;53.608;10.046;2022-11-15T10:14:00;10.10;95.20
592;DHT22;283;53.608;10.046;2022-11-15T10:16:52;9.90;95.40
592;DHT22;283;53.608;10.046;2022-11-15T10:19:26;10.00;95.50
592;DHT22;283;53.608;10.046;2022-11-15T10:21:59;9.90;95.70
592;DHT22;283;53.608;10.046;2022-11-15T10:24:28;10.20;95.60
592;DHT22;283;53.608;10.046;2022-11-15T10:27:06;10.00;95.20
592;DHT22;283;53.608;10.046;2022-11-15T10:29:35;10.40;95.50
592;DHT22;283;53.608;10.046;2022-11-15T10:32:04;10.10;94.70
592;DHT22;283;53.608;10.046;2022-11-15T10:34:35;10.30;95.30
592;DHT22;283;53.608;10.046;2022-11-15T10:37:04;10.20;95.30
592;DHT22;283;53.608;10.046;2022-11-15T10:39:32;10.50;95.30
592;DHT22;283;53.608;10.046;2022-11-15T10:42:14;10.60;95.30
592;DHT22;283;53.608;10.046;2022-11-15T10:44:44;10.40;95.50
592;DHT22;283;53.608;10.046;2022-11-15T10:47:22;10.40;95.30
592;DHT22;283;53.608;10.046;2022-11-15T10:49:57;10.50;95.50
592;DHT22;283;53.608;10.046;2022-11-15T10:52:30;10.50;95.60
592;DHT22;283;53.608;10.046;2022-11-15T10:54:59;10.50;95.40
592;DHT22;283;53.608;10.046;2022-11-15T10:57:29;10.50;95.50
592;DHT22;283;53.608;10.046;2022-11-15T10:59:59;10.60;95.30
592;DHT22;283;53.608;10.046;2022-11-15T11:02:29;10.60;95.40
592;DHT22;283;53.608;10.046;2022-11-15T11:19:02;11.30;95.30
592;DHT22;283;53.608;10.046;2022-11-15T11:21:34;11.10;94.80
592;DHT22;283;53.608;10.046;2022-11-15T11:24:08;11.20;94.90
592;DHT22;283;53.608;10.046;2022-11-15T11:26:40;11.20;94.90
592;DHT22;283;53.608;10.046;2022-11-15T11:29:19;11.30;95.00
592;DHT22;283;53.608;10.046;2022-11-15T11:31:51;11.30;94.90
592;DHT22;283;53.608;10.046;2022-11-15T11:34:25;11.30;94.90
592;DHT22;283;53.608;10.046;2022-11-15T11:36:58;11.30;94.70
592;DHT22;283;53.608;10.046;2022-11-15T11:39:28;11.30;94.80
592;DHT22;283;53.608;10.046;2022-11-15T11:42:01;11.40;94.80
592;DHT22;283;53.608;10.046;2022-11-15T11:44:33;11.40;94.50
592;DHT22;283;53.608;10.046;2022-11-15T11:47:03;11.40;94.30
592;DHT22;283;53.608;10.046;2022-11-15T11:49:37;11.40;94.10
592;DHT22;283;53.608;10.046;2022-11-15T11:52:08;11.50;94.40
592;DHT22;283;53.608;10.046;2022-11-15T11:54:39;11.40;94.10
592;DHT22;283;53.608;10.046;2022-11-15T11:57:10;11.60;94.40
592;DHT22;283;53.608;10.046;2022-11-15T11:59:41;11.50;94.10
592;DHT22;283;53.608;10.046;2022-11-15T12:02:12;11.40;94.00
592;DHT22;283;53.608;10.046;2022-11-15T12:04:43;11.60;94.60
592;DHT22;283;53.608;10.046;2022-11-15T12:07:13;11.60;94.20
592;DHT22;283;53.608;10.046;2022-11-15T12:09:44;11.60;94.20
592;DHT22;283;53.608;10.046;2022-11-15T12:12:13;11.60;94.30
592;DHT22;283;53.608;10.046;2022-11-15T12:14:45;11.70;94.10
592;DHT22;283;53.608;10.046;2022-11-15T12:17:14;11.70;93.90
592;DHT22;283;53.608;10.046;2022-11-15T12:19:44;11.80;93.90
592;DHT22;283;53.608;10.046;2022-11-15T12:22:13;11.80;94.00
592;DHT22;283;53.608;10.046;2022-11-15T12:24:45;11.90;94.00
592;DHT22;283;53.608;10.046;2022-11-15T12:27:17;11.90;93.90
592;DHT22;283;53.608;10.046;2022-11-15T12:29:52;12.00;93.90
592;DHT22;283;53.608;10.046;2022-11-15T12:32:24;11.90;93.60
592;DHT22;283;53.608;10.046;2022-11-15T12:34:54;12.00;93.80
592;DHT22;283;53.608;10.046;2022-11-15T12:40:23;12.20;93.70
592;DHT22;283;53.608;10.046;2022-11-15T12:42:58;12.10;93.70
592;DHT22;283;53.608;10.046;2022-11-15T12:45:27;12.00;93.90
592;DHT22;283;53.608;10.046;2022-11-15T12:47:56;12.00;93.80
592;DHT22;283;53.608;10.046;2022-11-15T12:50:56;12.00;93.90
592;DHT22;283;53.608;10.046;2022-11-15T12:53:25;11.90;94.00
592;DHT22;283;53.608;10.046;2022-11-15T12:58:41;11.90;94.00
592;DHT22;283;53.608;10.046;2022-11-15T13:01:09;11.80;93.90
592;DHT22;283;53.608;10.046;2022-11-15T13:06:40;11.80;93.80
592;DHT22;283;53.608;10.046;2022-11-15T13:11:54;11.80;94.00
592;DHT22;283;53.608;10.046;2022-11-15T13:14:37;11.90;94.10
592;DHT22;283;53.608;10.046;2022-11-15T13:19:53;11.90;94.20
592;DHT22;283;53.608;10.046;2022-11-15T13:22:24;11.90;94.10
592;DHT22;283;53.608;10.046;2022-11-15T13:28:11;11.90;94.10
592;DHT22;283;53.608;10.046;2022-11-15T13:30:39;11.80;94.00
592;DHT22;283;53.608;10.046;2022-11-15T13:33:08;11.90;94.10
592;DHT22;283;53.608;10.046;2022-11-15T13:35:36;11.90;94.20
592;DHT22;283;53.608;10.046;2022-11-15T13:38:17;11.90;94.40
592;DHT22;283;53.608;10.046;2022-11-15T13:40:45;11.90;94.00
592;DHT22;283;53.608;10.046;2022-11-15T13:43:23;11.80;94.40
592;DHT22;283;53.608;10.046;2022-11-15T13:46:03;11.90;94.20
592;DHT22;283;53.608;10.046;2022-11-15T13:48:31;11.90;94.20
592;DHT22;283;53.608;10.046;2022-11-15T13:51:00;11.90;94.40
592;DHT22;283;53.608;10.046;2022-11-15T13:53:31;11.80;94.20
592;DHT22;283;53.608;10.046;2022-11-15T13:55:59;11.90;94.20
592;DHT22;283;53.608;10.046;2022-11-15T13:58:26;11.90;94.10
592;DHT22;283;53.608;10.046;2022-11-15T14:00:58;12.00;94.10
592;DHT22;283;53.608;10.046;2022-11-15T14:03:27;12.00;94.30
592;DHT22;283;53.608;10.046;2022-11-15T14:06:05;12.00;94.40
592;DHT22;283;53.608;10.046;2022-11-15T14:08:35;12.00;94.20
592;DHT22;283;53.608;10.046;2022-11-15T14:11:12;12.00;94.30
592;DHT22;283;53.608;10.046;2022-11-15T14:13:41;12.00;94.30
592;DHT22;283;53.608;10.046;2022-11-15T14:16:12;11.90;94.40
592;DHT22;283;53.608;10.046;2022-11-15T14:18:44;12.00;94.30
592;DHT22;283;53.608;10.046;2022-11-15T14:21:12;12.00;94.30
592;DHT22;283;53.608;10.046;2022-11-15T14:23:41;12.00;94.40
592;DHT22;283;53.608;10.046;2022-11-15T14:26:11;12.00;94.50
592;DHT22;283;53.608;10.046;2022-11-15T14:28:52;12.00;94.60
592;DHT22;283;53.608;10.046;2022-11-15T14:31:20;11.90;94.50
592;DHT22;283;53.608;10.046;2022-11-15T14:33:48;11.80;94.60
592;DHT22;283;53.608;10.046;2022-11-15T14:36:16;11.70;94.80
592;DHT22;283;53.608;10.046;2022-11-15T14:38:46;11.70;94.90
592;DHT22;283;53.608;10.046;2022-11-15T14:41:17;11.80;95.10
592;DHT22;283;53.608;10.046;2022-11-15T14:43:45;11.70;95.10
592;DHT22;283;53.608;10.046;2022-11-15T14:46:12;11.70;95.30
592;DHT22;283;53.608;10.046;2022-11-15T14:48:40;11.70;95.10
592;DHT22;283;53.608;10.046;2022-11-15T14:51:12;11.60;95.30
592;DHT22;283;53.608;10.046;2022-11-15T14:53:41;11.60;95.60
592;DHT22;283;53.608;10.046;2022-11-15T14:56:11;11.60;95.30
592;DHT22;283;53.608;10.046;2022-11-15T14:58:41;11.60;95.30
592;DHT22;283;53.608;10.046;2022-11-15T15:01:10;11.50;95.60
592;DHT22;283;53.608;10.046;2022-11-15T15:03:39;11.40;95.80
592;DHT22;283;53.608;10.046;2022-11-15T15:06:07;11.50;95.90
592;DHT22;283;53.608;10.046;2022-11-15T15:08:43;11.30;96.00
592;DHT22;283;53.608;10.046;2022-11-15T15:11:13;11.30;96.40
592;DHT22;283;53.608;10.046;2022-11-15T15:13:41;11.20;96.20
592;DHT22;283;53.608;10.046;2022-11-15T15:16:09;11.30;96.10
592;DHT22;283;53.608;10.046;2022-11-15T15:18:37;11.30;96.10
592;DHT22;283;53.608;10.046;2022-11-15T15:21:11;11.20;96.20
592;DHT22;283;53.608;10.046;2022-11-15T15:23:42;11.10;96.20
592;DHT22;283;53.608;10.046;2022-11-15T15:26:10;11.10;96.40
592;DHT22;283;53.608;10.046;2022-11-15T15:28:39;11.10;96.40
592;DHT22;283;53.608;10.046;2022-11-15T15:31:07;11.00;96.50
592;DHT22;283;53.608;10.046;2022-11-15T15:33:35;11.00;96.70
592;DHT22;283;53.608;10.046;2022-11-15T15:36:03;10.90;96.70
592;DHT22;283;53.608;10.046;2022-11-15T15:38:31;11.00;96.80
592;DHT22;283;53.608;10.046;2022-11-15T15:40:59;10.90;96.70
592;DHT22;283;53.608;10.046;2022-11-15T15:43:29;10.80;96.90
592;DHT22;283;53.608;10.046;2022-11-15T15:45:58;10.90;97.20
592;DHT22;283;53.608;10.046;2022-11-15T15:48:25;10.80;97.20
592;DHT22;283;53.608;10.046;2022-11-15T15:50:53;10.70;97.30
592;DHT22;283;53.608;10.046;2022-11-15T15:53:20;10.60;97.40
592;DHT22;283;53.608;10.046;2022-11-15T15:55:48;10.60;97.40
592;DHT22;283;53.608;10.046;2022-11-15T15:58:15;10.50;97.70
592;DHT22;283;53.608;10.046;2022-11-15T16:00:43;10.50;97.80
592;DHT22;283;53.608;10.046;2022-11-15T16:03:12;10.50;97.90
592;DHT22;283;53.608;10.046;2022-11-15T16:05:39;10.40;98.10
592;DHT22;283;53.608;10.046;2022-11-15T16:08:09;10.40;98.00
592;DHT22;283;53.608;10.046;2022-11-15T16:10:39;10.40;98.30
592;DHT22;283;53.608;10.046;2022-11-15T16:13:07;10.30;98.20
592;DHT22;283;53.608;10.046;2022-11-15T16:15:34;10.30;98.40
592;DHT22;283;53.608;10.046;2022-11-15T16:18:03;10.30;98.60
592;DHT22;283;53.608;10.046;2022-11-15T16:20:36;10.30;98.60
592;DHT22;283;53.608;10.046;2022-11-15T16:23:06;10.30;98.70
592;DHT22;283;53.608;10.046;2022-11-15T16:25:40;10.20;98.70
592;DHT22;283;53.608;10.046;2022-11-15T16:28:12;10.30;98.90
592;DHT22;283;53.608;10.046;2022-11-15T16:30:42;10.40;98.90
592;DHT22;283;53.608;10.046;2022-11-15T16:33:09;10.40;98.70
592;DHT22;283;53.608;10.046;2022-11-15T16:35:38;10.50;98.60
592;DHT22;283;53.608;10.046;2022-11-15T16:38:07;10.60;98.50
592;DHT22;283;53.608;10.046;2022-11-15T16:40:35;10.50;98.60
592;DHT22;283;53.608;10.046;2022-11-15T16:43:03;10.70;98.50
592;DHT22;283;53.608;10.046;2022-11-15T16:45:32;10.60;98.50
592;DHT22;283;53.608;10.046;2022-11-15T16:48:01;10.50;98.90
592;DHT22;283;53.608;10.046;2022-11-15T16:50:29;10.50;98.90
592;DHT22;283;53.608;10.046;2022-11-15T16:52:59;10.60;99.10
592;DHT22;283;53.608;10.046;2022-11-15T16:55:28;10.70;98.70
592;DHT22;283;53.608;10.046;2022-11-15T16:57:56;10.70;98.50
592;DHT22;283;53.608;10.046;2022-11-15T17:00:24;10.60;98.80
592;DHT22;283;53.608;10.046;2022-11-15T17:02:52;10.60;98.80
592;DHT22;283;53.608;10.046;2022-11-15T17:05:22;10.70;98.80
592;DHT22;283;53.608;10.046;2022-11-15T17:07:50;10.70;98.90
592;DHT22;283;53.608;10.046;2022-11-15T17:10:21;10.60;99.10
592;DHT22;283;53.608;10.046;2022-11-15T17:12:49;10.40;99.20
592;DHT22;283;53.608;10.046;2022-11-15T17:15:16;10.40;99.40
592;DHT22;283;53.608;10.046;2022-11-15T17:17:44;10.30;99.20
592;DHT22;283;53.608;10.046;2022-11-15T17:20:17;10.30;99.90
592;DHT22;283;53.608;10.046;2022-11-15T17:22:45;10.30;99.70
592;DHT22;283;53.608;10.046;2022-11-15T17:25:13;10.30;99.90
592;DHT22;283;53.608;10.046;2022-11-15T17:27:42;10.20;99.90
592;DHT22;283;53.608;10.046;2022-11-15T17:30:10;10.20;99.90
592;DHT22;283;53.608;10.046;2022-11-15T17:32:38;10.20;99.90
592;DHT22;283;53.608;10.046;2022-11-15T17:35:06;10.20;99.90
592;DHT22;283;53.608;10.046;2022-11-15T17:37:41;10.20;99.90
592;DHT22;283;53.608;10.046;2022-11-15T17:40:08;10.20;99.90
592;DHT22;283;53.608;10.046;2022-11-15T17:42:39;10.20;99.90
592;DHT22;283;53.608;10.046;2022-11-15T17:45:08;10.20;99.90
592;DHT22;283;53.608;10.046;2022-11-15T17:47:36;10.10;99.90
592;DHT22;283;53.608;10.046;2022-11-15T17:50:04;10.10;99.90